Time;durP1;ratioP1;P1;durP2;ratioP2;P2;SDS_P1;SDS_P2;PMS_P1;PMS_P2;Temp;Humidity;BMP_temperature;BMP_pressure;BME280_temperature;BME280_humidity;BME280_pressure;Samples;Min_cycle;Max_cycle;Signal;HPM_P1;HPM_P2
2024/02/17 00:00:39;;;;;;;8.82;7.70;;;13.00;99.90;;;;;;4988406;28;20521;-58
2024/02/17 00:03:05;;;;;;;8.30;7.50;;;12.90;99.90;;;;;;4988728;28;20030;-60
2024/02/17 00:05:30;;;;;;;8.07;7.22;;;12.90;99.90;;;;;;4988561;28;20034;-58
2024/02/17 00:07:56;;;;;;;8.00;7.05;;;12.90;99.90;;;;;;4988537;28;20090;-53
2024/02/17 00:10:22;;;;;;;8.40;7.50;;;12.90;99.90;;;;;;4989103;28;20327;-59
2024/02/17 00:12:47;;;;;;;9.30;7.75;;;12.90;99.90;;;;;;4989120;28;20459;-56
2024/02/17 00:15:13;;;;;;;10.57;7.68;;;12.90;99.90;;;;;;4988923;28;20034;-59
2024/02/17 00:17:38;;;;;;;8.45;7.40;;;12.80;99.90;;;;;;4989524;28;20030;-49
2024/02/17 00:20:05;;;;;;;21.17;9.23;;;12.90;99.90;;;;;;4990351;28;20049;-49
2024/02/17 00:22:30;;;;;;;10.63;8.25;;;12.80;99.90;;;;;;4990582;28;20442;-59
2024/02/17 00:24:56;;;;;;;8.18;7.32;;;12.80;99.90;;;;;;5012405;23;20045;-48
2024/02/17 00:27:21;;;;;;;11.00;9.18;;;12.70;99.90;;;;;;5031281;28;20033;-48
2024/02/17 00:29:47;;;;;;;10.77;8.20;;;12.70;99.90;;;;;;5031190;28;20033;-51
2024/02/17 00:32:13;;;;;;;9.85;8.60;;;12.70;99.90;;;;;;5031165;28;20075;-48
2024/02/17 00:34:40;;;;;;;9.10;8.20;;;12.70;99.90;;;;;;5030983;28;20052;-48
2024/02/17 00:37:05;;;;;;;11.38;8.07;;;12.60;99.90;;;;;;5030845;28;20056;-50
2024/02/17 00:39:31;;;;;;;15.85;10.32;;;12.60;99.90;;;;;;5030959;28;20124;-52
2024/02/17 00:41:56;;;;;;;12.00;9.45;;;12.60;99.90;;;;;;5031049;28;20344;-50
2024/02/17 00:44:22;;;;;;;13.00;11.40;;;12.50;99.90;;;;;;5014334;28;20026;-54
2024/02/17 00:46:47;;;;;;;30.73;10.05;;;12.50;99.90;;;;;;5034503;28;20026;-49
2024/02/17 00:49:13;;;;;;;12.95;9.70;;;12.50;99.90;;;;;;5034451;28;20402;-53
2024/02/17 00:51:39;;;;;;;11.98;9.15;;;12.50;99.90;;;;;;5034891;28;20475;-47
2024/02/17 00:54:04;;;;;;;24.17;16.92;;;12.40;99.90;;;;;;5034617;28;20034;-51
2024/02/17 00:56:30;;;;;;;21.33;16.33;;;12.40;99.90;;;;;;5033285;28;20061;-53
2024/02/17 00:58:55;;;;;;;13.35;10.82;;;12.40;99.90;;;;;;5034944;28;20422;-50
2024/02/17 01:01:21;;;;;;;13.50;9.40;;;12.40;99.90;;;;;;5034463;28;20052;-49
2024/02/17 01:03:46;;;;;;;12.43;9.30;;;12.40;99.90;;;;;;5016578;28;20021;-51
2024/02/17 01:06:12;;;;;;;11.15;9.10;;;12.40;99.90;;;;;;5034054;28;20124;-48
2024/02/17 01:08:38;;;;;;;12.20;9.52;;;12.40;99.90;;;;;;5034190;28;20029;-52
2024/02/17 01:11:03;;;;;;;11.65;9.23;;;12.40;99.90;;;;;;5034371;28;20113;-53
2024/02/17 01:13:29;;;;;;;12.07;7.85;;;12.40;99.90;;;;;;5034464;28;20033;-50
2024/02/17 01:15:56;;;;;;;11.48;8.30;;;12.40;99.90;;;;;;5016074;28;20501;-50
2024/02/17 01:18:21;;;;;;;13.32;9.10;;;12.50;99.90;;;;;;5034128;28;20076;-51
2024/02/17 01:20:47;;;;;;;11.80;9.10;;;12.30;99.90;;;;;;5033864;28;20409;-51
2024/02/17 01:23:12;;;;;;;13.27;9.68;;;12.30;99.90;;;;;;5033640;28;20388;-49
2024/02/17 01:25:38;;;;;;;11.90;9.48;;;12.20;99.90;;;;;;5033341;28;20065;-48
2024/02/17 01:28:04;;;;;;;11.85;8.88;;;12.20;99.90;;;;;;5015918;28;20029;-48
2024/02/17 01:30:29;;;;;;;10.98;8.98;;;12.10;99.90;;;;;;5016247;28;20494;-50
2024/02/17 01:32:55;;;;;;;11.65;8.60;;;12.00;99.90;;;;;;5033848;28;20081;-48
2024/02/17 01:35:20;;;;;;;11.93;8.65;;;12.00;99.90;;;;;;5033492;28;20026;-52
2024/02/17 01:37:48;;;;;;;16.50;9.98;;;11.90;99.90;;;;;;5033695;28;20022;-48
2024/02/17 01:40:16;;;;;;;14.77;9.35;;;11.80;99.90;;;;;;5033885;28;20021;-51
2024/02/17 01:42:42;;;;;;;10.85;8.90;;;11.70;99.90;;;;;;5033451;28;20029;-51
2024/02/17 01:45:10;;;;;;;14.18;9.18;;;11.70;99.90;;;;;;5033170;28;20025;-52
2024/02/17 01:47:36;;;;;;;10.05;8.68;;;11.60;99.90;;;;;;5033384;28;20030;-51
2024/02/17 01:50:02;;;;;;;13.57;9.30;;;11.60;99.90;;;;;;5016082;28;20029;-50
2024/02/17 01:52:29;;;;;;;15.07;9.63;;;11.50;99.90;;;;;;5033414;28;20048;-52
2024/02/17 01:54:55;;;;;;;11.10;8.85;;;11.40;99.90;;;;;;5032986;28;20033;-51
2024/02/17 01:57:22;;;;;;;11.95;9.30;;;11.40;99.90;;;;;;5032280;28;20026;-48
2024/02/17 01:59:48;;;;;;;15.82;11.48;;;11.30;99.90;;;;;;5033155;28;20053;-50
2024/02/17 02:02:13;;;;;;;16.58;11.93;;;11.30;99.90;;;;;;5033085;28;20022;-49
2024/02/17 02:04:39;;;;;;;18.05;12.52;;;11.20;99.90;;;;;;5032819;28;20390;-50
2024/02/17 02:07:05;;;;;;;16.33;11.98;;;11.20;99.90;;;;;;5031509;28;20048;-52
2024/02/17 02:09:30;;;;;;;17.80;12.15;;;11.10;99.90;;;;;;5032896;28;20491;-50
2024/02/17 02:11:56;;;;;;;17.83;12.07;;;11.00;99.90;;;;;;5015464;28;20026;-51
2024/02/17 02:14:23;;;;;;;16.55;11.93;;;11.00;99.90;;;;;;5032938;28;20414;-53
2024/02/17 02:16:48;;;;;;;18.00;12.52;;;11.00;99.90;;;;;;5032696;28;20068;-52
2024/02/17 02:19:15;;;;;;;16.55;12.45;;;10.90;99.90;;;;;;5032725;28;20026;-49
2024/02/17 02:21:41;;;;;;;15.32;11.32;;;10.90;99.90;;;;;;5032739;28;20392;-50
2024/02/17 02:24:07;;;;;;;16.75;11.05;;;10.90;99.90;;;;;;5032358;28;20083;-49
2024/02/17 02:26:33;;;;;;;18.70;11.77;;;10.80;99.90;;;;;;5032351;28;20037;-51
2024/02/17 02:28:59;;;;;;;16.13;10.98;;;10.80;99.90;;;;;;5032579;28;20095;-53
2024/02/17 02:31:25;;;;;;;13.45;10.10;;;10.80;99.90;;;;;;5031015;28;20510;-48
2024/02/17 02:33:51;;;;;;;13.27;10.43;;;10.70;99.90;;;;;;5032217;28;20026;-53
2024/02/17 02:36:17;;;;;;;13.23;9.77;;;10.70;99.90;;;;;;5032173;28;20401;-52
2024/02/17 02:38:43;;;;;;;15.02;10.80;;;10.70;99.90;;;;;;5032318;28;20037;-51
2024/02/17 02:41:10;;;;;;;17.13;11.02;;;10.70;99.90;;;;;;5032282;28;20108;-52
2024/02/17 02:43:37;;;;;;;16.52;11.82;;;10.60;99.90;;;;;;5030726;28;20545;-52
2024/02/17 02:46:02;;;;;;;15.40;11.02;;;10.60;99.90;;;;;;5031858;28;20441;-53
2024/02/17 02:48:28;;;;;;;15.68;12.02;;;10.60;99.90;;;;;;5032174;28;20037;-53
2024/02/17 02:50:53;;;;;;;17.27;11.27;;;10.50;99.90;;;;;;5032046;28;20529;-50
2024/02/17 02:53:19;;;;;;;17.58;12.20;;;10.50;99.90;;;;;;5032141;28;20045;-51
2024/02/17 02:55:44;;;;;;;16.55;11.93;;;10.50;99.90;;;;;;5031757;28;20037;-49
2024/02/17 02:58:10;;;;;;;16.13;11.75;;;10.50;99.90;;;;;;5032150;28;20083;-57
2024/02/17 03:00:37;;;;;;;16.88;11.30;;;10.40;99.90;;;;;;5032195;28;20070;-49
2024/02/17 03:03:03;;;;;;;16.00;11.40;;;10.50;99.90;;;;;;5032316;28;20502;-53
2024/02/17 03:05:29;;;;;;;20.05;12.13;;;10.60;99.90;;;;;;5031734;28;20024;-51
2024/02/17 03:07:54;;;;;;;20.67;12.02;;;10.70;99.90;;;;;;5014087;28;20178;-51
2024/02/17 03:10:20;;;;;;;16.77;12.07;;;10.70;99.90;;;;;;5031814;28;20112;-49
2024/02/17 03:12:45;;;;;;;18.42;12.80;;;10.70;99.90;;;;;;5031719;28;20075;-50
2024/02/17 03:15:11;;;;;;;15.45;11.05;;;10.80;99.90;;;;;;5031386;28;20030;-52
2024/02/17 03:17:36;;;;;;;21.75;11.27;;;10.80;99.90;;;;;;5031724;28;20025;-49
2024/02/17 03:20:04;;;;;;;16.33;11.52;;;10.80;99.90;;;;;;5031709;28;20029;-53
2024/02/17 03:22:30;;;;;;;18.15;12.63;;;10.80;99.90;;;;;;5014037;28;20469;-52
2024/02/17 03:24:55;;;;;;;20.40;12.75;;;10.80;99.90;;;;;;5030831;28;20076;-53
2024/02/17 03:27:21;;;;;;;15.85;12.05;;;10.70;99.90;;;;;;5031557;28;20030;-52
2024/02/17 03:29:47;;;;;;;18.38;12.23;;;10.80;99.90;;;;;;5031481;28;20029;-50
2024/02/17 03:32:13;;;;;;;18.08;12.65;;;10.80;99.90;;;;;;5013694;28;20021;-49
2024/02/17 03:34:38;;;;;;;21.10;12.93;;;10.90;99.90;;;;;;5031582;28;20442;-52
2024/02/17 03:37:04;;;;;;;19.42;13.20;;;10.90;99.90;;;;;;5031303;28;20060;-48
2024/02/17 03:39:32;;;;;;;19.02;13.00;;;10.90;99.90;;;;;;5031380;28;20209;-51
2024/02/17 03:41:58;;;;;;;19.60;11.38;;;10.90;99.90;;;;;;5013623;28;20033;-50
2024/02/17 03:44:23;;;;;;;17.00;12.05;;;10.90;99.90;;;;;;5031360;28;20026;-47
2024/02/17 03:46:49;;;;;;;20.13;13.18;;;10.80;99.90;;;;;;5031195;28;20098;-52
2024/02/17 03:49:15;;;;;;;19.73;12.98;;;10.70;99.90;;;;;;5031399;28;20022;-53
2024/02/17 03:51:41;;;;;;;21.50;13.55;;;10.70;99.90;;;;;;5013508;28;20026;-51
2024/02/17 03:54:06;;;;;;;20.02;14.52;;;10.60;99.90;;;;;;5031232;28;20022;-53
2024/02/17 03:56:32;;;;;;;19.33;13.48;;;10.50;99.90;;;;;;5030960;28;20024;-49
2024/02/17 03:58:58;;;;;;;20.15;14.02;;;10.50;99.90;;;;;;5031355;28;20025;-52
2024/02/17 04:01:23;;;;;;;21.52;13.93;;;10.50;99.90;;;;;;5031217;28;20542;-53
2024/02/17 04:03:49;;;;;;;20.88;14.60;;;10.40;99.90;;;;;;5031132;28;20037;-51
2024/02/17 04:06:14;;;;;;;20.73;13.95;;;10.40;99.90;;;;;;5031027;28;20029;-49
2024/02/17 04:08:40;;;;;;;26.27;13.30;;;10.50;99.90;;;;;;5031139;28;20029;-49
2024/02/17 04:11:07;;;;;;;22.08;14.52;;;10.50;99.90;;;;;;5013424;28;20037;-48
2024/02/17 04:13:32;;;;;;;21.98;14.25;;;10.60;99.90;;;;;;5031115;28;20045;-48
2024/02/17 04:15:57;;;;;;;23.08;13.93;;;10.60;99.90;;;;;;5031172;28;20064;-48
2024/02/17 04:18:23;;;;;;;23.65;13.93;;;10.60;99.90;;;;;;5031267;28;20049;-52
2024/02/17 04:20:48;;;;;;;21.13;13.98;;;10.50;99.90;;;;;;5034958;28;20029;-48
2024/02/17 04:23:14;;;;;;;22.52;14.45;;;10.40;99.90;;;;;;5034751;28;20108;-48
2024/02/17 04:25:41;;;;;;;20.85;13.82;;;10.40;99.90;;;;;;5016897;28;20104;-54
2024/02/17 04:28:07;;;;;;;19.95;14.55;;;10.40;99.90;;;;;;5034827;28;20076;-50
2024/02/17 04:30:33;;;;;;;22.52;14.07;;;10.30;99.90;;;;;;5016981;28;20069;-50
2024/02/17 04:32:59;;;;;;;22.17;13.50;;;10.30;99.90;;;;;;5016956;28;20108;-53
2024/02/17 04:35:25;;;;;;;19.92;12.93;;;10.30;99.90;;;;;;5016849;28;20017;-49
2024/02/17 04:37:52;;;;;;;17.73;12.98;;;10.30;99.90;;;;;;5035111;28;20032;-51
2024/02/17 04:40:18;;;;;;;20.75;13.63;;;10.30;99.90;;;;;;5034724;28;20038;-51
2024/02/17 04:42:44;;;;;;;23.60;12.20;;;10.30;99.90;;;;;;5017098;28;20376;-51
2024/02/17 04:45:10;;;;;;;20.08;12.15;;;10.30;99.90;;;;;;5017142;28;20040;-50
2024/02/17 04:47:36;;;;;;;19.88;13.85;;;10.40;99.90;;;;;;5034662;28;20053;-52
2024/02/17 04:50:01;;;;;;;17.38;12.55;;;10.60;99.90;;;;;;5016817;28;20427;-51
2024/02/17 04:52:27;;;;;;;15.05;11.75;;;10.50;99.90;;;;;;5016910;28;20119;-53
2024/02/17 04:54:52;;;;;;;19.27;11.85;;;10.50;99.90;;;;;;5033630;28;20030;-53
2024/02/17 04:57:18;;;;;;;15.55;11.80;;;10.50;99.90;;;;;;5016490;28;20079;-48
2024/02/17 04:59:44;;;;;;;18.27;12.07;;;10.50;99.90;;;;;;5034177;28;20443;-54
2024/02/17 05:02:10;;;;;;;17.65;12.32;;;10.50;99.90;;;;;;5034234;28;20026;-50
2024/02/17 05:04:36;;;;;;;19.90;12.27;;;10.50;99.90;;;;;;5033840;28;20076;-50
2024/02/17 05:07:01;;;;;;;19.60;13.15;;;10.50;99.90;;;;;;5033977;28;20025;-53
2024/02/17 05:09:27;;;;;;;21.77;13.95;;;10.50;99.90;;;;;;5034030;28;20018;-54
2024/02/17 05:11:55;;;;;;;23.15;13.82;;;10.50;99.90;;;;;;5033846;28;20025;-54
2024/02/17 05:14:25;;;;;;;19.27;14.90;;;10.50;99.90;;;;;;5033807;28;20013;-50
2024/02/17 05:16:51;;;;;;;23.27;14.60;;;10.40;99.90;;;;;;5033668;28;20027;-50
2024/02/17 05:19:16;;;;;;;25.75;15.80;;;10.40;99.90;;;;;;5033805;28;20114;-49
2024/02/17 05:21:43;;;;;;;20.77;14.95;;;10.40;99.90;;;;;;5032587;28;20029;-48
2024/02/17 05:24:09;;;;;;;23.50;15.35;;;10.40;99.90;;;;;;5033416;28;20048;-53
2024/02/17 05:26:35;;;;;;;26.20;15.20;;;10.40;99.90;;;;;;5015499;28;20037;-48
2024/02/17 05:29:06;;;;;;;24.35;14.70;;;10.40;99.90;;;;;;5033618;28;20032;-51
2024/02/17 05:31:33;;;;;;;20.02;14.63;;;10.40;99.90;;;;;;5032255;28;20026;-54
2024/02/17 05:33:58;;;;;;;22.88;13.77;;;10.40;99.90;;;;;;5015655;28;20067;-49
2024/02/17 05:36:25;;;;;;;22.23;14.43;;;10.40;99.90;;;;;;5033315;28;20107;-53
2024/02/17 05:38:51;;;;;;;23.23;14.20;;;10.40;99.90;;;;;;5033576;28;20037;-50
2024/02/17 05:41:17;;;;;;;21.65;14.52;;;10.50;99.90;;;;;;5033555;28;20454;-53
2024/02/17 05:43:42;;;;;;;18.17;13.40;;;10.50;99.90;;;;;;5033030;28;20045;-52
2024/02/17 05:46:08;;;;;;;21.63;14.07;;;10.50;99.90;;;;;;5033199;28;20034;-48
2024/02/17 05:48:34;;;;;;;20.23;13.57;;;10.50;99.90;;;;;;5033290;28;20440;-49
2024/02/17 05:50:59;;;;;;;25.45;14.85;;;10.50;99.90;;;;;;5031905;28;20029;-48
2024/02/17 05:53:25;;;;;;;21.65;13.93;;;10.50;99.90;;;;;;5033097;28;20117;-52
2024/02/17 05:55:51;;;;;;;21.88;14.30;;;10.60;99.90;;;;;;5033489;28;20415;-52
2024/02/17 05:58:16;;;;;;;19.27;13.23;;;10.60;99.90;;;;;;5033165;28;20596;-49
2024/02/17 06:00:42;;;;;;;20.65;12.57;;;10.50;99.90;;;;;;5033033;28;20029;-50
2024/02/17 06:03:08;;;;;;;21.58;13.25;;;10.50;99.90;;;;;;5033366;28;20026;-48
2024/02/17 06:05:33;;;;;;;22.23;13.65;;;10.50;99.90;;;;;;5032941;28;20497;-50
2024/02/17 06:07:59;;;;;;;24.08;13.77;;;10.40;99.90;;;;;;5033090;28;20076;-51
2024/02/17 06:10:24;;;;;;;25.35;13.27;;;10.40;99.90;;;;;;5032837;28;20033;-47
2024/02/17 06:12:50;;;;;;;22.95;12.75;;;10.30;99.90;;;;;;5032894;28;20030;-51
2024/02/17 06:15:16;;;;;;;26.50;14.73;;;10.30;99.90;;;;;;5032481;28;20025;-51
2024/02/17 06:17:43;;;;;;;23.83;14.00;;;10.30;99.90;;;;;;5032673;28;20036;-51
2024/02/17 06:22:56;;;;;;;20.17;12.32;;;10.20;99.90;;;;;;5032343;28;20560;-51
2024/02/17 06:25:22;;;;;;;22.48;12.38;;;10.00;99.90;;;;;;5049673;23;20074;-59
2024/02/17 06:27:47;;;;;;;;;;;10.10;99.90;;;;;;5013537;28;20037;-59
2024/02/17 06:30:14;;;;;;;20.40;12.93;;;10.00;99.90;;;;;;4995255;28;20407;-59
2024/02/17 06:32:40;;;;;;;20.45;13.73;;;10.00;99.90;;;;;;5012992;28;20369;-57
2024/02/17 06:35:06;;;;;;;16.83;13.48;;;10.00;99.90;;;;;;5012739;28;20026;-59
2024/02/17 06:37:34;;;;;;;21.73;13.00;;;10.00;99.90;;;;;;4995513;28;20025;-59
2024/02/17 06:39:59;;;;;;;21.35;13.25;;;9.80;99.90;;;;;;5012736;28;20109;-58
2024/02/17 06:42:25;;;;;;;19.88;11.95;;;9.90;99.90;;;;;;5012505;28;20481;-59
2024/02/17 06:44:51;;;;;;;19.75;12.30;;;9.90;99.90;;;;;;5012879;28;20109;-61
2024/02/17 06:47:16;;;;;;;20.85;12.02;;;9.80;99.90;;;;;;4994979;28;20117;-58
2024/02/17 06:49:42;;;;;;;22.05;12.45;;;10.00;99.90;;;;;;5012706;28;20060;-60
2024/02/17 06:52:09;;;;;;;20.27;11.40;;;10.00;99.90;;;;;;5012963;28;20050;-59
2024/02/17 06:54:35;;;;;;;16.20;12.45;;;10.00;99.90;;;;;;5012587;28;20022;-60
2024/02/17 06:57:00;;;;;;;14.38;11.07;;;10.20;99.90;;;;;;4994654;28;20026;-58
2024/02/17 06:59:26;;;;;;;20.90;13.45;;;10.40;99.90;;;;;;5012656;28;20044;-59
2024/02/17 07:01:51;;;;;;;20.75;11.48;;;10.50;99.90;;;;;;5012577;28;20030;-57
2024/02/17 07:04:17;;;;;;;22.30;12.00;;;10.60;99.90;;;;;;5014475;28;20483;-53
2024/02/17 07:06:45;;;;;;;17.75;11.48;;;10.60;99.90;;;;;;5012141;28;20037;-52
2024/02/17 07:09:20;;;;;;;14.35;11.45;;;11.00;99.90;;;;;;5011926;28;20026;-54
2024/02/17 07:11:46;;;;;;;13.93;10.40;;;10.60;99.90;;;;;;5012386;28;20052;-58
2024/02/17 07:14:12;;;;;;;19.67;9.18;;;10.80;99.90;;;;;;5009235;28;20022;-57
2024/02/17 07:16:38;;;;;;;13.48;10.27;;;10.80;99.90;;;;;;5001831;28;20026;-54
2024/02/17 07:19:03;;;;;;;13.70;10.05;;;10.90;99.90;;;;;;5007294;28;20283;-54
2024/02/17 07:21:30;;;;;;;13.35;9.95;;;11.00;99.90;;;;;;4991706;28;20049;-55
2024/02/17 07:23:55;;;;;;;12.52;9.80;;;11.10;99.90;;;;;;5004567;28;20041;-57
2024/02/17 07:26:21;;;;;;;13.40;9.27;;;11.20;99.90;;;;;;4993723;28;20030;-56
2024/02/17 07:28:47;;;;;;;20.63;9.73;;;11.10;99.90;;;;;;5012007;28;20038;-56
2024/02/17 07:31:15;;;;;;;14.00;9.38;;;11.00;99.90;;;;;;5012770;28;20037;-56
2024/02/17 07:33:46;;;;;;;15.45;9.88;;;10.90;99.90;;;;;;4994564;28;20029;-52
2024/02/17 07:36:13;;;;;;;20.67;10.27;;;10.80;99.90;;;;;;5009985;28;20049;-58
2024/02/17 07:38:39;;;;;;;15.77;10.15;;;10.70;99.90;;;;;;4995423;28;20026;-58
2024/02/17 07:41:05;;;;;;;15.07;9.07;;;10.70;99.90;;;;;;4992170;28;20077;-57
2024/02/17 07:43:30;;;;;;;12.00;8.93;;;10.60;99.90;;;;;;5004966;28;20049;-59
2024/02/17 07:45:56;;;;;;;12.95;9.20;;;10.70;99.90;;;;;;5003173;28;20026;-52
2024/02/17 07:48:21;;;;;;;11.98;8.57;;;10.70;99.90;;;;;;5011745;28;20025;-57
2024/02/17 07:50:47;;;;;;;10.38;8.70;;;10.70;99.90;;;;;;5011510;28;20022;-51
2024/02/17 07:53:12;;;;;;;12.88;8.70;;;10.70;99.90;;;;;;5011681;28;20073;-54
2024/02/17 07:55:38;;;;;;;15.88;8.98;;;10.80;99.90;;;;;;4997406;28;20018;-54
2024/02/17 07:58:06;;;;;;;14.18;9.52;;;10.70;99.90;;;;;;5014931;28;20377;-53
2024/02/17 08:00:32;;;;;;;18.77;11.05;;;10.80;99.90;;;;;;5015747;28;20076;-56
2024/02/17 08:02:57;;;;;;;15.93;9.90;;;10.80;99.90;;;;;;5015407;28;20026;-57
2024/02/17 08:05:23;;;;;;;14.00;10.20;;;10.90;99.90;;;;;;5014914;28;20033;-52
2024/02/17 08:07:48;;;;;;;13.57;9.23;;;10.90;99.90;;;;;;5015341;28;20037;-55
2024/02/17 08:10:14;;;;;;;14.88;9.85;;;10.90;99.90;;;;;;5015251;28;20383;-57
2024/02/17 08:12:40;;;;;;;17.02;10.35;;;11.00;99.90;;;;;;5011427;28;20472;-55
2024/02/17 08:15:06;;;;;;;13.93;9.07;;;11.00;99.90;;;;;;5009414;28;20706;-55
2024/02/17 08:17:35;;;;;;;11.50;9.05;;;10.90;99.90;;;;;;5007853;28;20024;-55
2024/02/17 08:20:02;;;;;;;16.55;9.40;;;10.90;99.90;;;;;;4999381;28;20030;-51
2024/02/17 08:22:28;;;;;;;14.93;8.93;;;10.90;99.90;;;;;;5011307;28;20034;-56
2024/02/17 08:24:53;;;;;;;17.42;9.57;;;11.00;99.90;;;;;;5002807;28;20034;-49
2024/02/17 08:27:19;;;;;;;14.98;9.68;;;11.20;99.90;;;;;;4993174;28;20034;-51
2024/02/17 08:29:45;;;;;;;12.93;9.52;;;11.20;99.90;;;;;;4997384;28;20061;-49
2024/02/17 08:32:11;;;;;;;19.60;8.98;;;11.30;99.90;;;;;;5005039;28;20064;-52
2024/02/17 08:34:36;;;;;;;10.57;8.05;;;11.50;99.90;;;;;;5014763;28;20076;-54
2024/02/17 08:37:02;;;;;;;9.93;8.18;;;11.50;99.90;;;;;;4980734;28;20054;-56
2024/02/17 08:39:27;;;;;;;19.00;8.93;;;11.60;99.90;;;;;;5004532;28;20101;-53
2024/02/17 08:41:54;;;;;;;12.75;8.65;;;11.70;99.90;;;;;;5014713;28;20526;-50
2024/02/17 08:44:19;;;;;;;18.55;8.77;;;11.80;99.90;;;;;;5014828;28;20456;-54
2024/02/17 08:46:44;;;;;;;10.25;8.18;;;12.00;99.90;;;;;;5014677;28;20057;-54
2024/02/17 08:49:10;;;;;;;11.95;7.95;;;12.20;99.90;;;;;;5014584;28;20080;-53
2024/02/17 08:51:36;;;;;;;12.55;7.78;;;12.30;99.90;;;;;;5014482;28;20025;-51
2024/02/17 08:54:02;;;;;;;14.18;8.95;;;12.30;99.90;;;;;;5014268;28;20017;-56
2024/02/17 08:56:28;;;;;;;9.15;6.80;;;12.40;99.90;;;;;;5014197;28;20174;-50
2024/02/17 08:58:54;;;;;;;8.73;7.10;;;12.40;99.90;;;;;;5014771;28;20026;-54
2024/02/17 09:01:19;;;;;;;10.10;7.28;;;12.50;99.90;;;;;;5013089;28;20018;-54
2024/02/17 09:03:45;;;;;;;12.68;6.95;;;12.40;99.90;;;;;;5014368;28;20061;-54
2024/02/17 09:06:11;;;;;;;9.85;5.90;;;12.50;99.90;;;;;;4996124;28;20072;-55
2024/02/17 09:08:36;;;;;;;12.43;7.22;;;12.50;99.90;;;;;;4997482;28;20030;-52
2024/02/17 09:11:02;;;;;;;8.60;6.05;;;12.40;99.90;;;;;;4995436;28;20030;-55
2024/02/17 09:13:27;;;;;;;10.25;6.90;;;12.40;99.90;;;;;;5012661;28;20088;-51
2024/02/17 09:15:53;;;;;;;9.75;6.68;;;12.40;99.90;;;;;;5013012;28;20026;-45
2024/02/17 09:18:18;;;;;;;10.60;6.60;;;12.50;99.90;;;;;;5013734;28;20026;-53
2024/02/17 09:20:44;;;;;;;15.27;7.38;;;12.50;99.90;;;;;;5001150;28;20050;-49
2024/02/17 09:23:09;;;;;;;10.63;7.38;;;12.60;99.90;;;;;;5001988;28;20035;-47
2024/02/17 09:25:35;;;;;;;11.75;6.63;;;12.70;99.90;;;;;;4998287;28;20034;-50
2024/02/17 09:28:01;;;;;;;10.05;6.53;;;12.80;99.90;;;;;;5013791;28;20483;-53
2024/02/17 09:30:26;;;;;;;12.55;7.28;;;13.10;99.90;;;;;;5012370;28;20033;-49
2024/02/17 09:32:52;;;;;;;10.65;6.82;;;12.70;99.90;;;;;;4996529;28;20048;-49
2024/02/17 09:35:18;;;;;;;10.13;6.78;;;12.80;99.90;;;;;;4995100;28;20073;-48
2024/02/17 09:37:44;;;;;;;10.45;7.00;;;12.70;99.90;;;;;;5002862;28;20026;-49
2024/02/17 09:40:11;;;;;;;9.05;6.63;;;12.70;99.90;;;;;;5003148;28;20030;-51
2024/02/17 09:42:37;;;;;;;10.10;6.57;;;12.70;99.90;;;;;;4981222;28;20065;-51
2024/02/17 09:45:03;;;;;;;15.05;7.07;;;12.70;99.90;;;;;;5005087;28;20054;-54
2024/02/17 09:47:32;;;;;;;11.75;6.82;;;12.70;99.90;;;;;;5013668;28;20066;-52
2024/02/17 09:49:58;;;;;;;11.30;5.90;;;12.80;99.90;;;;;;4994699;28;20022;-54
2024/02/17 09:52:24;;;;;;;10.80;5.85;;;12.80;99.90;;;;;;5001620;28;20056;-52
2024/02/17 09:54:50;;;;;;;11.50;6.43;;;13.00;99.90;;;;;;5010796;28;20072;-50
2024/02/17 09:57:17;;;;;;;8.18;6.03;;;13.10;99.90;;;;;;5011449;28;20484;-50
2024/02/17 09:59:43;;;;;;;9.70;5.95;;;13.10;99.90;;;;;;5013021;28;20092;-47
2024/02/17 10:02:09;;;;;;;8.02;5.90;;;13.30;99.90;;;;;;5013063;28;20101;-50
2024/02/17 10:04:35;;;;;;;6.65;5.30;;;13.40;99.90;;;;;;5012890;28;20037;-48
2024/02/17 10:07:01;;;;;;;13.88;5.28;;;13.40;99.90;;;;;;5012675;28;20026;-49
2024/02/17 10:09:27;;;;;;;8.93;5.43;;;13.50;99.90;;;;;;4991804;28;20114;-49
2024/02/17 10:11:54;;;;;;;11.40;6.03;;;13.70;99.90;;;;;;4993067;28;20030;-47
2024/02/17 10:14:23;;;;;;;12.35;5.63;;;13.30;99.90;;;;;;4997800;28;20021;-51
2024/02/17 10:16:55;;;;;;;12.52;5.65;;;13.60;99.90;;;;;;5001751;28;20124;-51
2024/02/17 10:19:21;;;;;;;7.38;5.47;;;13.60;99.90;;;;;;4995800;28;20446;-46
2024/02/17 10:21:47;;;;;;;8.02;5.32;;;13.80;99.90;;;;;;5010746;28;20095;-48
2024/02/17 10:24:13;;;;;;;8.98;5.15;;;13.80;99.90;;;;;;5001472;28;20026;-45
2024/02/17 10:26:39;;;;;;;6.60;4.90;;;13.90;99.90;;;;;;5012484;28;20467;-47
2024/02/17 10:29:05;;;;;;;14.73;5.88;;;13.80;99.90;;;;;;5002581;28;20035;-51
2024/02/17 10:31:31;;;;;;;61.40;35.72;;;13.90;99.90;;;;;;5015099;28;20026;-49
2024/02/17 10:33:56;;;;;;;50.47;27.55;;;14.00;99.90;;;;;;4995392;28;20107;-48
2024/02/17 10:36:23;;;;;;;13.57;8.45;;;14.00;99.90;;;;;;4996777;28;20101;-47
2024/02/17 10:38:49;;;;;;;8.50;5.65;;;14.00;99.90;;;;;;4991545;28;20101;-49
2024/02/17 10:41:14;;;;;;;9.80;5.93;;;14.00;99.90;;;;;;4993750;28;20514;-46
2024/02/17 10:43:43;;;;;;;13.38;5.68;;;14.10;99.90;;;;;;4992678;28;20069;-51
2024/02/17 10:46:18;;;;;;;6.88;5.22;;;14.20;99.90;;;;;;4992329;28;20026;-50
2024/02/17 10:48:51;;;;;;;13.17;6.20;;;14.30;99.90;;;;;;5009874;28;20113;-51
2024/02/17 10:51:17;;;;;;;8.50;5.63;;;14.50;99.90;;;;;;5012310;28;20463;-48
2024/02/17 10:53:47;;;;;;;10.30;6.25;;;14.60;99.90;;;;;;5012302;28;20014;-51
2024/02/17 10:56:17;;;;;;;8.20;5.50;;;14.60;99.90;;;;;;5011993;28;20025;-49
2024/02/17 10:58:45;;;;;;;8.25;5.75;;;14.70;99.90;;;;;;5012946;28;20436;-51
2024/02/17 11:01:14;;;;;;;10.63;6.63;;;14.70;99.90;;;;;;5012548;28;20497;-52
2024/02/17 11:03:42;;;;;;;9.27;6.80;;;14.80;99.90;;;;;;5003313;28;20105;-48
2024/02/17 11:06:16;;;;;;;8.07;5.80;;;14.70;99.90;;;;;;5004171;28;20050;-50
2024/02/17 11:08:42;;;;;;;15.75;6.38;;;14.60;99.90;;;;;;5007104;28;20032;-44
2024/02/17 11:11:28;;;;;;;7.97;5.93;;;14.50;99.90;;;;;;5003128;28;20034;-50
2024/02/17 11:13:55;;;;;;;9.25;6.47;;;14.50;99.90;;;;;;5007843;28;20495;-48
2024/02/17 11:16:23;;;;;;;9.90;6.15;;;14.40;99.90;;;;;;5005631;28;20026;-52
2024/02/17 11:18:51;;;;;;;14.00;6.63;;;14.40;99.90;;;;;;5005669;28;20026;-48
2024/02/17 11:21:25;;;;;;;10.50;6.82;;;14.40;99.90;;;;;;5010118;28;20029;-49
2024/02/17 11:23:50;;;;;;;11.85;6.78;;;14.30;99.90;;;;;;5009893;28;20068;-47
2024/02/17 11:26:18;;;;;;;11.85;5.70;;;14.20;99.90;;;;;;5009755;28;20038;-46
2024/02/17 11:28:43;;;;;;;9.60;6.43;;;14.20;99.90;;;;;;4994098;28;20031;-48
2024/02/17 11:31:10;;;;;;;11.05;7.13;;;14.10;99.90;;;;;;4992298;28;20041;-49
2024/02/17 11:33:36;;;;;;;10.77;6.97;;;14.20;99.90;;;;;;4992044;28;20034;-48
2024/02/17 11:36:03;;;;;;;14.07;6.20;;;14.20;99.90;;;;;;4992690;28;20030;-45
2024/02/17 11:38:30;;;;;;;14.98;6.55;;;14.30;99.90;;;;;;5004478;28;20041;-48
2024/02/17 11:41:00;;;;;;;11.65;6.00;;;14.30;99.90;;;;;;5002018;28;20042;-47
2024/02/17 11:43:27;;;;;;;11.60;6.47;;;14.40;99.90;;;;;;5005333;28;20030;-52
2024/02/17 11:45:54;;;;;;;9.73;6.38;;;14.40;99.90;;;;;;5011157;28;20026;-47
2024/02/17 11:48:21;;;;;;;13.85;6.63;;;14.40;99.90;;;;;;5011387;28;20057;-50
2024/02/17 11:50:46;;;;;;;15.05;7.75;;;14.50;99.90;;;;;;5010614;28;20049;-52
2024/02/17 11:53:16;;;;;;;11.38;6.50;;;14.50;99.90;;;;;;5011232;28;20037;-48
2024/02/17 11:55:41;;;;;;;13.23;7.10;;;14.50;99.90;;;;;;5002636;28;20015;-47
2024/02/17 11:58:09;;;;;;;14.95;6.65;;;14.40;99.90;;;;;;4992370;28;20100;-49
2024/02/17 12:00:44;;;;;;;9.27;5.93;;;14.30;99.90;;;;;;4991701;28;20485;-50
2024/02/17 12:03:10;;;;;;;;;;;14.20;99.90;;;;;;4984604;28;20026;-48
2024/02/17 12:05:36;;;;;;;11.15;6.78;;;14.20;99.90;;;;;;5010133;28;20361;-47
2024/02/17 12:08:01;;;;;;;10.00;6.72;;;14.30;99.90;;;;;;5010728;28;20123;-48
2024/02/17 12:10:27;;;;;;;10.38;6.20;;;14.40;99.90;;;;;;5009716;28;20030;-50
2024/02/17 12:12:52;;;;;;;11.90;7.65;;;14.40;99.90;;;;;;5007830;28;20038;-49
2024/02/17 12:15:18;;;;;;;9.57;7.13;;;14.40;99.90;;;;;;4999595;28;20053;-46
2024/02/17 12:17:44;;;;;;;11.07;6.97;;;14.40;99.90;;;;;;5011088;28;20029;-47
2024/02/17 12:20:15;;;;;;;15.85;6.63;;;14.40;99.90;;;;;;5009889;28;20541;-47
2024/02/17 12:22:45;;;;;;;11.88;6.97;;;14.60;99.90;;;;;;5009337;28;20021;-47
2024/02/17 12:25:12;;;;;;;8.50;5.75;;;14.60;99.90;;;;;;5008661;28;20046;-47
2024/02/17 12:27:40;;;;;;;10.18;7.05;;;14.40;99.90;;;;;;5039900;23;20048;-42
2024/02/17 12:30:06;;;;;;;13.73;6.82;;;14.40;99.90;;;;;;5012994;28;20171;-41